createdAt,value
2018-12-25T00:01:21.509Z,5.30
2018-12-25T00:04:01.974Z,4.50
2018-12-25T00:06:43.068Z,5.55
2018-12-25T00:09:23.494Z,5.92
2018-12-25T00:12:03.996Z,4.80
2018-12-25T00:14:45.360Z,5.15
2018-12-25T00:17:25.987Z,6.92
2018-12-25T00:20:06.950Z,3.67
2018-12-25T00:22:47.966Z,6.40
2018-12-25T00:25:28.333Z,5.72
2018-12-25T00:28:09.243Z,4.67
2018-12-25T00:30:50.502Z,6.70
2018-12-25T00:33:30.994Z,6.58
2018-12-25T00:36:11.836Z,7.12
2018-12-25T00:38:52.922Z,5.62
2018-12-25T00:41:33.463Z,5.05
2018-12-25T00:44:14.538Z,6.62
2018-12-25T00:46:55.074Z,5.83
2018-12-25T00:49:33.770Z,5.42
2018-12-25T00:52:21.537Z,5.95
2018-12-25T00:55:09.645Z,5.50
2018-12-25T00:57:57.690Z,6.25
2018-12-25T01:00:45.734Z,6.47
2018-12-25T01:03:33.766Z,7.97
2018-12-25T01:06:21.546Z,5.25
2018-12-25T01:09:09.326Z,5.75
2018-12-25T01:11:57.378Z,5.78
2018-12-25T01:14:45.402Z,5.65
2018-12-25T01:17:33.465Z,7.50
2018-12-25T01:20:21.234Z,8.45
2018-12-25T01:23:21.677Z,5.75
2018-12-25T01:25:59.442Z,6.50
2018-12-25T01:28:47.632Z,6.10
2018-12-25T01:31:28.666Z,7.22
2018-12-25T01:34:09.589Z,6.58
2018-12-25T01:36:49.877Z,4.83
2018-12-25T01:39:34.106Z,4.92
2018-12-25T01:42:14.794Z,6.87
2018-12-25T01:44:55.730Z,5.62
2018-12-25T01:47:36.086Z,6.83
2018-12-25T01:50:16.972Z,7.47
2018-12-25T01:52:58.010Z,7.60
2018-12-25T01:55:38.562Z,5.90
2018-12-25T01:58:19.185Z,7.15
2018-12-25T02:01:00.286Z,6.62
2018-12-25T02:03:41.030Z,5.58
2018-12-25T02:06:21.734Z,5.40
2018-12-25T02:09:02.186Z,6.62
2018-12-25T02:11:42.674Z,6.50
2018-12-25T02:14:23.138Z,11.93
2018-12-25T02:17:04.182Z,6.28
2018-12-25T02:19:45.004Z,4.50
2018-12-25T02:22:26.294Z,6.25
2018-12-25T02:25:08.326Z,6.67
2018-12-25T02:27:48.498Z,6.35
2018-12-25T02:30:29.058Z,5.37
2018-12-25T02:33:09.621Z,5.87
2018-12-25T02:35:50.718Z,5.92
2018-12-25T02:38:31.997Z,6.17
2018-12-25T02:41:12.636Z,6.25
2018-12-25T02:43:53.207Z,6.10
2018-12-25T02:46:34.468Z,5.42
2018-12-25T02:49:15.096Z,6.92
2018-12-25T02:51:56.007Z,6.22
2018-12-25T02:54:36.803Z,5.40
2018-12-25T02:57:17.500Z,5.58
2018-12-25T02:59:58.058Z,4.85
2018-12-25T03:02:38.977Z,6.17
2018-12-25T03:05:19.803Z,7.90
2018-12-25T03:08:00.926Z,5.40
2018-12-25T03:10:41.574Z,6.67
2018-12-25T03:13:22.260Z,4.65
2018-12-25T03:16:02.427Z,4.10
2018-12-25T03:18:43.106Z,4.37
2018-12-25T03:21:24.550Z,5.40
2018-12-25T03:24:05.104Z,4.25
2018-12-25T03:26:45.959Z,5.20
2018-12-25T03:29:27.021Z,5.28
2018-12-25T03:32:07.759Z,5.47
2018-12-25T03:34:48.774Z,4.62
2018-12-25T03:37:29.688Z,3.70
2018-12-25T03:40:10.957Z,5.72
2018-12-25T03:42:51.568Z,4.03
2018-12-25T03:45:32.462Z,4.08
2018-12-25T03:48:13.401Z,6.30
2018-12-25T03:50:54.477Z,4.62
2018-12-25T03:53:35.467Z,4.85
2018-12-25T03:56:19.440Z,4.33
2018-12-25T03:59:00.478Z,4.92
2018-12-25T04:01:41.112Z,4.03
2018-12-25T04:04:21.779Z,9.40
2018-12-25T04:07:02.923Z,4.65
2018-12-25T04:09:43.450Z,5.20
2018-12-25T04:12:23.971Z,4.08
2018-12-25T04:15:05.247Z,3.70
2018-12-25T04:17:45.713Z,3.90
2018-12-25T04:20:26.399Z,4.40
2018-12-25T04:23:07.045Z,3.70
2018-12-25T04:25:47.982Z,4.00
2018-12-25T04:28:28.933Z,4.22
2018-12-25T04:31:10.013Z,5.40
2018-12-25T04:33:50.736Z,5.20
2018-12-25T04:36:31.497Z,5.58
2018-12-25T04:39:12.438Z,5.30
2018-12-25T04:41:52.883Z,5.97
2018-12-25T04:44:33.655Z,6.72
2018-12-25T04:47:14.453Z,4.70
2018-12-25T04:49:55.287Z,5.33
2018-12-25T04:52:35.712Z,4.00
2018-12-25T04:55:16.611Z,4.53
2018-12-25T04:57:57.400Z,4.30
2018-12-25T05:00:38.258Z,4.72
2018-12-25T05:03:18.961Z,4.75
2018-12-25T05:05:59.678Z,4.15
2018-12-25T05:08:40.444Z,6.05
2018-12-25T05:11:21.243Z,4.60
2018-12-25T05:14:01.986Z,6.40
2018-12-25T05:16:42.958Z,4.75
2018-12-25T05:19:24.156Z,5.50
2018-12-25T05:22:04.958Z,4.33
2018-12-25T05:24:45.729Z,4.37
2018-12-25T05:27:26.200Z,6.47
2018-12-25T05:30:06.470Z,5.50
2018-12-25T05:32:47.249Z,6.22
2018-12-25T05:35:27.873Z,4.90
2018-12-25T05:38:08.854Z,6.75
2018-12-25T05:40:49.642Z,6.65
2018-12-25T05:43:30.443Z,7.30
2018-12-25T05:46:11.219Z,4.92
2018-12-25T05:48:52.242Z,5.42
2018-12-25T05:51:32.698Z,5.87
2018-12-25T05:54:13.473Z,5.97
2018-12-25T05:56:54.189Z,7.30
2018-12-25T05:59:35.090Z,4.33
2018-12-25T06:02:15.905Z,8.43
2018-12-25T06:04:56.290Z,6.05
2018-12-25T06:07:36.849Z,6.42
2018-12-25T06:10:15.854Z,6.25
2018-12-25T06:13:03.613Z,8.80
2018-12-25T06:15:51.649Z,6.35
2018-12-25T06:18:39.415Z,5.40
2018-12-25T06:21:27.181Z,5.62
2018-12-25T06:24:15.234Z,4.87
2018-12-25T06:27:03.026Z,5.78
2018-12-25T06:29:51.134Z,5.62
2018-12-25T06:32:38.919Z,5.58
2018-12-25T06:35:26.673Z,6.95
2018-12-25T06:38:14.452Z,6.37
2018-12-25T06:41:02.214Z,5.53
2018-12-25T06:43:49.989Z,4.25
2018-12-25T06:46:37.750Z,4.58
2018-12-25T06:49:25.535Z,6.45
2018-12-25T06:52:13.537Z,6.72
2018-12-25T06:54:54.206Z,6.17
2018-12-25T06:57:34.814Z,4.85
2018-12-25T07:00:15.812Z,7.12
2018-12-25T07:02:56.207Z,5.60
2018-12-25T07:05:37.420Z,5.17
2018-12-25T07:08:17.858Z,7.75
2018-12-25T07:10:59.336Z,7.10
2018-12-25T07:13:39.920Z,5.72
2018-12-25T07:16:20.962Z,6.10
2018-12-25T07:19:01.492Z,7.20
2018-12-25T07:21:42.174Z,7.65
2018-12-25T07:24:22.758Z,6.37
2018-12-25T07:27:03.461Z,5.12
2018-12-25T07:29:44.118Z,6.70
2018-12-25T07:32:24.870Z,6.87
2018-12-25T07:35:05.562Z,7.53
2018-12-25T07:37:46.150Z,7.05
2018-12-25T07:40:26.853Z,6.33
2018-12-25T07:43:07.913Z,5.45
2018-12-25T07:45:48.658Z,6.08
2018-12-25T07:48:29.064Z,8.63
2018-12-25T07:51:10.014Z,5.05
2018-12-25T07:53:50.807Z,4.92
2018-12-25T07:56:31.553Z,4.90
2018-12-25T07:59:12.173Z,3.58
2018-12-25T08:01:52.894Z,5.30
2018-12-25T08:04:33.767Z,5.33
2018-12-25T08:07:15.015Z,7.95
2018-12-25T08:09:55.942Z,5.70
2018-12-25T08:12:36.614Z,6.65
2018-12-25T08:15:17.814Z,5.20
2018-12-25T08:17:58.238Z,5.15
2018-12-25T08:20:39.303Z,5.50
2018-12-25T08:23:19.450Z,3.80
2018-12-25T08:26:00.330Z,6.12
2018-12-25T08:28:41.517Z,3.98
2018-12-25T08:31:22.142Z,5.75
2018-12-25T08:34:03.299Z,7.22
2018-12-25T08:36:43.866Z,6.28
2018-12-25T08:39:24.611Z,4.40
2018-12-25T08:42:05.569Z,6.45
2018-12-25T08:44:46.109Z,5.37
2018-12-25T08:47:27.578Z,5.53
2018-12-25T08:50:08.687Z,5.17
2018-12-25T08:52:49.814Z,6.10
2018-12-25T08:55:30.174Z,4.22
2018-12-25T08:58:11.450Z,5.55
2018-12-25T09:00:51.866Z,5.65
2018-12-25T09:03:32.545Z,5.17
2018-12-25T09:06:13.569Z,6.97
2018-12-25T09:08:54.709Z,7.62
2018-12-25T09:11:35.209Z,6.78
2018-12-25T09:14:15.798Z,5.42
2018-12-25T09:16:56.567Z,4.12
2018-12-25T09:19:36.755Z,5.90
2018-12-25T09:22:17.776Z,5.75
2018-12-25T09:24:58.902Z,5.25
2018-12-25T09:27:39.809Z,3.77
2018-12-25T09:30:20.170Z,5.20
2018-12-25T09:33:00.670Z,5.50
2018-12-25T09:35:41.429Z,8.00
2018-12-25T09:38:22.441Z,4.90
2018-12-25T09:41:03.081Z,4.80
2018-12-25T09:43:43.882Z,4.83
2018-12-25T09:46:25.266Z,3.85
2018-12-25T09:49:05.775Z,5.42
2018-12-25T09:51:54.378Z,4.30
2018-12-25T09:54:28.783Z,5.17
2018-12-25T09:57:09.502Z,4.30
2018-12-25T09:59:50.326Z,4.45
2018-12-25T10:02:30.710Z,5.22
2018-12-25T10:05:11.809Z,4.42
2018-12-25T10:07:52.410Z,5.28
2018-12-25T10:10:33.409Z,4.12
2018-12-25T10:13:14.327Z,4.67
2018-12-25T10:15:54.998Z,4.17
2018-12-25T10:18:35.386Z,3.33
2018-12-25T10:21:16.102Z,5.87
2018-12-25T10:23:57.477Z,3.83
2018-12-25T10:26:38.098Z,3.80
2018-12-25T10:29:18.506Z,3.15
2018-12-25T10:32:03.414Z,2.87
2018-12-25T10:34:44.822Z,3.85
2018-12-25T10:37:25.559Z,5.72
2018-12-25T10:40:05.954Z,5.45
2018-12-25T10:42:47.191Z,4.42
2018-12-25T10:45:27.502Z,3.98
2018-12-25T10:48:08.430Z,4.10
2018-12-25T10:50:49.062Z,3.25
2018-12-25T10:53:29.673Z,2.77
2018-12-25T10:56:10.264Z,2.95
2018-12-25T10:58:51.235Z,6.53
2018-12-25T11:01:31.643Z,3.67
2018-12-25T11:04:12.738Z,4.10
2018-12-25T11:06:53.250Z,5.67
2018-12-25T11:09:34.182Z,3.50
2018-12-25T11:12:14.942Z,4.10
2018-12-25T11:14:56.311Z,4.42
2018-12-25T11:17:36.746Z,3.30
2018-12-25T11:20:17.462Z,3.47
2018-12-25T11:22:57.751Z,5.08
2018-12-25T11:25:26.197Z,3.50
2018-12-25T11:28:13.965Z,5.55
2018-12-25T11:31:02.001Z,5.50
2018-12-25T11:33:49.781Z,2.55
2018-12-25T11:39:30.981Z,5.50
2018-12-25T11:42:18.757Z,4.12
2018-12-25T11:45:06.834Z,5.50
2018-12-25T11:47:54.611Z,5.37
2018-12-25T11:50:44.453Z,6.10
2018-12-25T11:53:32.221Z,3.58
2018-12-25T11:56:12.782Z,5.35
2018-12-25T11:58:53.793Z,4.17
2018-12-25T12:01:34.561Z,5.95
2018-12-25T12:04:15.229Z,4.65
2018-12-25T12:06:56.127Z,4.28
2018-12-25T12:09:36.794Z,4.17
2018-12-25T12:12:17.705Z,5.60
2018-12-25T12:14:58.645Z,5.40
2018-12-25T12:17:39.366Z,6.35
2018-12-25T12:20:20.042Z,4.60
2018-12-25T12:23:00.798Z,6.47
2018-12-25T12:25:41.621Z,7.42
2018-12-25T12:28:22.613Z,4.75
2018-12-25T12:31:03.522Z,3.83
2018-12-25T12:33:44.647Z,4.85
2018-12-25T12:36:25.637Z,4.85
2018-12-25T12:39:06.818Z,4.25
2018-12-25T12:41:47.381Z,5.85
2018-12-25T12:44:28.162Z,4.28
2018-12-25T12:47:09.030Z,6.10
2018-12-25T12:49:49.834Z,5.42
2018-12-25T12:52:30.634Z,3.98
2018-12-25T12:55:11.814Z,5.28
2018-12-25T12:57:52.270Z,4.25
2018-12-25T13:00:33.249Z,4.08
2018-12-25T13:03:13.538Z,3.80
2018-12-25T13:05:54.331Z,6.00
2018-12-25T13:08:35.485Z,4.10
2018-12-25T13:11:16.492Z,4.60
2018-12-25T13:13:57.131Z,4.50
2018-12-25T13:16:37.897Z,4.78
2018-12-25T13:19:18.742Z,10.32
2018-12-25T13:21:59.797Z,4.20
2018-12-25T13:24:40.354Z,5.30
2018-12-25T13:27:21.191Z,4.50
2018-12-25T13:30:02.918Z,4.17
2018-12-25T13:32:43.882Z,5.62
2018-12-25T13:35:24.786Z,4.10
2018-12-25T13:38:06.785Z,6.87
2018-12-25T13:40:48.046Z,6.15
2018-12-25T13:43:28.614Z,5.17
2018-12-25T13:46:09.914Z,5.03
2018-12-25T13:48:50.553Z,4.60
2018-12-25T13:51:31.446Z,7.70
2018-12-25T13:54:11.937Z,4.40
2018-12-25T13:56:53.770Z,4.10
2018-12-25T13:59:34.646Z,4.33
2018-12-25T14:02:15.448Z,5.58
2018-12-25T14:04:56.518Z,4.90
2018-12-25T14:07:37.057Z,5.03
2018-12-25T14:10:18.090Z,4.35
2018-12-25T14:12:59.027Z,4.65
2018-12-25T14:15:39.942Z,5.87
2018-12-25T14:18:18.666Z,6.72
2018-12-25T14:21:06.442Z,6.25
2018-12-25T14:23:54.589Z,4.70
2018-12-25T14:26:42.680Z,5.70
2018-12-25T14:29:30.448Z,4.10
2018-12-25T14:32:18.227Z,5.62
2018-12-25T14:35:06.285Z,7.10
2018-12-25T14:37:54.324Z,3.52
2018-12-25T14:40:42.094Z,6.62
2018-12-25T14:43:29.861Z,4.20
2018-12-25T14:46:17.929Z,4.95
2018-12-25T14:49:05.714Z,5.53
2018-12-25T14:51:49.967Z,5.17
2018-12-25T14:54:30.891Z,7.87
2018-12-25T14:57:11.334Z,6.35
2018-12-25T14:59:52.246Z,7.25
2018-12-25T15:02:33.299Z,7.40
2018-12-25T15:05:14.179Z,4.42
2018-12-25T15:07:54.671Z,4.78
2018-12-25T15:10:35.778Z,6.15
2018-12-25T15:13:16.577Z,4.45
2018-12-25T15:15:56.877Z,5.00
2018-12-25T15:18:37.719Z,7.85
2018-12-25T15:21:18.953Z,6.60
2018-12-25T15:23:59.425Z,7.08
2018-12-25T15:26:39.965Z,5.55
2018-12-25T15:29:20.999Z,6.03
2018-12-25T15:32:01.962Z,6.20
2018-12-25T15:34:43.122Z,6.62
2018-12-25T15:37:23.909Z,6.37
2018-12-25T15:40:04.885Z,5.60
2018-12-25T15:42:45.463Z,7.65
2018-12-25T15:45:26.402Z,6.58
2018-12-25T15:48:07.465Z,8.15
2018-12-25T15:50:48.421Z,7.75
2018-12-25T15:53:36.646Z,7.00
2018-12-25T15:56:11.926Z,5.92
2018-12-25T15:58:52.439Z,7.62
2018-12-25T16:01:33.342Z,6.05
2018-12-25T16:04:13.780Z,8.18
2018-12-25T16:06:54.569Z,7.80
2018-12-25T16:09:35.082Z,7.53
2018-12-25T16:12:16.105Z,5.87
2018-12-25T16:14:56.583Z,5.62
2018-12-25T16:17:37.182Z,7.42
2018-12-25T16:20:17.862Z,6.47
2018-12-25T16:22:58.863Z,5.08
2018-12-25T16:25:39.641Z,6.75
2018-12-25T16:28:20.061Z,5.40
2018-12-25T16:31:01.106Z,6.42
2018-12-25T16:33:42.370Z,6.90
2018-12-25T16:36:22.901Z,7.47
2018-12-25T16:39:04.266Z,9.78
2018-12-25T16:41:44.506Z,6.60
2018-12-25T16:44:25.258Z,8.65
2018-12-25T16:47:06.347Z,6.47
2018-12-25T16:49:47.282Z,9.15
2018-12-25T16:52:28.233Z,7.22
2018-12-25T16:55:09.274Z,6.55
2018-12-25T16:57:49.963Z,5.75
2018-12-25T17:00:32.212Z,6.17
2018-12-25T17:03:12.827Z,7.53
2018-12-25T17:05:54.074Z,6.65
2018-12-25T17:08:38.222Z,6.70
2018-12-25T17:11:18.826Z,6.40
2018-12-25T17:13:59.209Z,5.95
2018-12-25T17:16:39.787Z,7.42
2018-12-25T17:19:20.810Z,6.60
2018-12-25T17:22:01.438Z,6.12
2018-12-25T17:24:40.381Z,6.80
2018-12-25T17:27:28.522Z,6.30
2018-12-25T17:30:16.639Z,6.95
2018-12-25T17:33:04.410Z,5.17
2018-12-25T17:35:52.185Z,6.30
2018-12-25T17:38:39.970Z,7.37
2018-12-25T17:41:27.741Z,5.53
2018-12-25T17:44:17.573Z,7.30
2018-12-25T17:47:05.593Z,5.47
2018-12-25T17:49:53.362Z,5.58
2018-12-25T17:52:34.361Z,11.05
2018-12-25T17:55:17.130Z,6.28
2018-12-25T17:57:57.382Z,8.43
2018-12-25T18:00:38.010Z,8.20
2018-12-25T18:03:18.930Z,6.60
2018-12-25T18:05:59.914Z,5.72
2018-12-25T18:08:41.066Z,8.30
2018-12-25T18:11:21.490Z,6.90
2018-12-25T18:14:02.666Z,7.10
2018-12-25T18:16:43.764Z,8.13
2018-12-25T18:19:24.347Z,8.10
2018-12-25T18:22:05.158Z,8.85
2018-12-25T18:24:46.016Z,5.50
2018-12-25T18:27:27.126Z,8.85
2018-12-25T18:30:08.021Z,6.85
2018-12-25T18:32:48.575Z,9.08
2018-12-25T18:35:29.374Z,11.03
2018-12-25T18:38:11.486Z,7.45
2018-12-25T18:40:52.670Z,7.70
2018-12-25T18:43:33.057Z,10.55
2018-12-25T18:46:14.049Z,7.28
2018-12-25T18:48:55.277Z,7.22
2018-12-25T18:51:36.249Z,7.00
2018-12-25T18:54:16.639Z,8.20
2018-12-25T18:56:57.796Z,11.12
2018-12-25T18:59:38.783Z,9.33
2018-12-25T19:02:19.498Z,12.23
2018-12-25T19:05:00.448Z,8.30
2018-12-25T19:07:40.975Z,9.68
2018-12-25T19:10:21.614Z,10.10
2018-12-25T19:13:02.703Z,9.20
2018-12-25T19:15:41.913Z,10.50
2018-12-25T19:18:30.101Z,9.05
2018-12-25T19:21:17.866Z,8.73
2018-12-25T19:24:05.965Z,7.95
2018-12-25T19:26:53.717Z,11.03
2018-12-25T19:29:41.834Z,12.85
2018-12-25T19:32:29.618Z,11.78
2018-12-25T19:35:17.467Z,8.48
2018-12-25T19:38:05.241Z,8.73
2018-12-25T19:40:53.378Z,6.83
2018-12-25T19:43:41.234Z,7.00
2018-12-25T19:46:29.016Z,10.00
2018-12-25T19:49:16.790Z,7.17
2018-12-25T19:52:04.933Z,5.87
2018-12-25T19:54:45.599Z,10.18
2018-12-25T19:57:26.583Z,7.20
2018-12-25T20:00:07.946Z,8.23
2018-12-25T20:03:16.470Z,12.33
2018-12-25T20:06:24.989Z,8.78
2018-12-25T20:09:32.362Z,8.18
2018-12-25T20:12:39.479Z,8.18
2018-12-25T20:15:46.838Z,7.92
2018-12-25T20:18:55.703Z,8.05
2018-12-25T20:22:04.522Z,9.08
2018-12-25T20:25:13.026Z,10.72
2018-12-25T20:28:21.530Z,9.85
2018-12-25T20:31:28.882Z,12.28
2018-12-25T20:34:35.982Z,7.97
2018-12-25T20:37:43.098Z,9.68
2018-12-25T20:40:50.463Z,7.08
2018-12-25T20:43:57.561Z,7.72
2018-12-25T20:47:04.923Z,9.25
2018-12-25T20:50:12.030Z,8.80
2018-12-25T20:52:52.677Z,10.53
2018-12-25T20:55:33.639Z,11.95
2018-12-25T20:58:14.414Z,8.58
2018-12-25T21:00:55.308Z,8.98
2018-12-25T21:03:35.916Z,11.03
2018-12-25T21:06:16.891Z,9.20
2018-12-25T21:08:57.826Z,11.10
2018-12-25T21:11:38.386Z,10.48
2018-12-25T21:14:19.650Z,9.58
2018-12-25T21:17:00.325Z,11.57
2018-12-25T21:19:40.990Z,11.50
2018-12-25T21:22:21.610Z,11.57
2018-12-25T21:25:09.699Z,11.80
2018-12-25T21:27:48.257Z,9.95
2018-12-25T21:30:29.330Z,10.48
2018-12-25T21:33:10.359Z,12.50
2018-12-25T21:35:50.699Z,11.03
2018-12-25T21:38:31.592Z,9.83
2018-12-25T21:41:12.698Z,11.93
2018-12-25T21:43:53.341Z,10.45
2018-12-25T21:46:34.174Z,13.25
2018-12-25T21:49:14.970Z,10.50
2018-12-25T21:51:55.338Z,11.03
2018-12-25T21:54:35.958Z,8.58
2018-12-25T21:57:16.475Z,9.75
2018-12-25T21:59:57.342Z,11.28
2018-12-25T22:02:37.893Z,10.35
2018-12-25T22:05:18.578Z,14.07
2018-12-25T22:07:59.078Z,7.55
2018-12-25T22:10:39.906Z,8.90
2018-12-25T22:13:20.890Z,9.90
2018-12-25T22:16:01.637Z,8.28
2018-12-25T22:18:42.070Z,8.58
2018-12-25T22:21:22.889Z,10.10
2018-12-25T22:24:04.054Z,10.95
2018-12-25T22:26:44.914Z,9.53
2018-12-25T22:29:25.709Z,10.85
2018-12-25T22:32:06.319Z,12.95
2018-12-25T22:34:47.464Z,8.40
2018-12-25T22:37:27.816Z,10.25
2018-12-25T22:40:08.674Z,10.03
2018-12-25T22:42:49.158Z,10.58
2018-12-25T22:45:30.102Z,9.80
2018-12-25T22:48:10.995Z,9.20
2018-12-25T22:50:52.118Z,9.90
2018-12-25T22:53:32.609Z,8.45
2018-12-25T22:56:13.428Z,9.00
2018-12-25T22:58:53.998Z,9.15
2018-12-25T23:01:34.610Z,9.50
2018-12-25T23:04:15.365Z,8.83
2018-12-25T23:06:56.643Z,9.20
2018-12-25T23:09:37.102Z,8.18
2018-12-25T23:12:17.866Z,8.20
2018-12-25T23:14:58.831Z,8.83
2018-12-25T23:17:39.735Z,8.58
2018-12-25T23:20:28.480Z,7.33
2018-12-25T23:23:04.054Z,7.90
2018-12-25T23:25:44.763Z,10.50
2018-12-25T23:28:25.507Z,9.35
2018-12-25T23:31:09.566Z,9.33
2018-12-25T23:33:50.226Z,9.13
2018-12-25T23:36:30.822Z,9.80
2018-12-25T23:39:11.835Z,9.35
2018-12-25T23:41:52.361Z,8.98
2018-12-25T23:44:33.339Z,8.40
2018-12-25T23:47:14.343Z,12.93
2018-12-25T23:49:54.873Z,10.25
2018-12-25T23:52:35.350Z,8.95
2018-12-25T23:55:16.001Z,11.68
2018-12-25T23:57:56.939Z,8.90
